sensor_id;sensor_type;location;lat;lon;timestamp;pressure;altitude;pressure_sealevel;temperature;humidity
61474;BME280;53694;49.784;30.150;2023-02-02T00:00:46;98656.72;;;3.90;73.02
61474;BME280;53694;49.784;30.150;2023-02-02T00:01:50;98655.48;;;3.63;74.23
61474;BME280;53694;49.784;30.150;2023-02-02T00:02:52;98661.94;;;3.58;75.43
61474;BME280;53694;49.784;30.150;2023-02-02T00:03:54;98661.94;;;3.58;75.43
61474;BME280;53694;49.784;30.150;2023-02-02T00:04:55;98666.23;;;3.71;75.38
61474;BME280;53694;49.784;30.150;2023-02-02T00:05:57;98650.97;;;3.91;75.18
61474;BME280;53694;49.784;30.150;2023-02-02T00:06:59;98667.14;;;4.12;74.47
61474;BME280;53694;49.784;30.150;2023-02-02T00:08:01;98654.27;;;4.37;74.12
61474;BME280;53694;49.784;30.150;2023-02-02T00:09:03;98658.42;;;4.59;72.88
61474;BME280;53694;49.784;30.150;2023-02-02T00:10:05;98659.81;;;4.81;72.15
61474;BME280;53694;49.784;30.150;2023-02-02T00:11:07;98651.77;;;5.00;71.36
61474;BME280;53694;49.784;30.150;2023-02-02T00:12:09;98656.56;;;5.19;70.49
61474;BME280;53694;49.784;30.150;2023-02-02T00:13:11;98655.34;;;5.33;69.71
61474;BME280;53694;49.784;30.150;2023-02-02T00:14:13;98654.58;;;5.48;69.44
61474;BME280;53694;49.784;30.150;2023-02-02T00:15:16;98660.79;;;5.64;68.84
61474;BME280;53694;49.784;30.150;2023-02-02T00:17:32;98652.98;;;5.63;68.04
61474;BME280;53694;49.784;30.150;2023-02-02T00:18:34;98658.49;;;5.35;67.98
61474;BME280;53694;49.784;30.150;2023-02-02T00:19:36;98644.32;;;4.97;68.77
61474;BME280;53694;49.784;30.150;2023-02-02T00:20:37;98647.30;;;4.64;70.11
61474;BME280;53694;49.784;30.150;2023-02-02T00:21:39;98656.09;;;4.33;71.24
61474;BME280;53694;49.784;30.150;2023-02-02T00:22:41;98659.31;;;3.98;72.19
61474;BME280;53694;49.784;30.150;2023-02-02T00:23:42;98657.73;;;3.73;73.41
61474;BME280;53694;49.784;30.150;2023-02-02T00:24:44;98659.34;;;3.62;74.22
61474;BME280;53694;49.784;30.150;2023-02-02T00:25:48;98659.11;;;3.67;74.57
61474;BME280;53694;49.784;30.150;2023-02-02T00:26:53;98664.87;;;3.78;74.41
61474;BME280;53694;49.784;30.150;2023-02-02T00:27:55;98663.84;;;3.94;74.17
61474;BME280;53694;49.784;30.150;2023-02-02T00:28:57;98661.58;;;4.21;73.78
61474;BME280;53694;49.784;30.150;2023-02-02T00:29:58;98656.77;;;4.42;73.24
61474;BME280;53694;49.784;30.150;2023-02-02T00:31:00;98657.81;;;4.66;72.28
61474;BME280;53694;49.784;30.150;2023-02-02T00:32:01;98659.09;;;4.84;71.26
61474;BME280;53694;49.784;30.150;2023-02-02T00:33:03;98653.80;;;5.04;70.79
61474;BME280;53694;49.784;30.150;2023-02-02T00:34:04;98648.03;;;5.21;69.75
61474;BME280;53694;49.784;30.150;2023-02-02T00:35:07;98646.81;;;5.34;69.01
61474;BME280;53694;49.784;30.150;2023-02-02T00:36:10;98658.15;;;5.52;68.70
61474;BME280;53694;49.784;30.150;2023-02-02T00:37:11;98650.44;;;5.54;67.57
61474;BME280;53694;49.784;30.150;2023-02-02T00:38:13;98657.20;;;5.44;68.07
61474;BME280;53694;49.784;30.150;2023-02-02T00:39:18;98648.03;;;5.21;68.17
61474;BME280;53694;49.784;30.150;2023-02-02T00:40:20;98658.87;;;4.89;68.65
61474;BME280;53694;49.784;30.150;2023-02-02T00:41:21;98652.66;;;4.48;69.93
61474;BME280;53694;49.784;30.150;2023-02-02T00:42:23;98660.80;;;4.08;71.20
61474;BME280;53694;49.784;30.150;2023-02-02T00:43:24;98648.37;;;3.70;72.71
61474;BME280;53694;49.784;30.150;2023-02-02T00:44:26;98645.39;;;3.39;74.20
61474;BME280;53694;49.784;30.150;2023-02-02T00:45:27;98637.33;;;3.18;75.42
61474;BME280;53694;49.784;30.150;2023-02-02T00:46:30;98647.95;;;3.11;76.25
61474;BME280;53694;49.784;30.150;2023-02-02T00:47:32;98635.52;;;3.22;76.48
61474;BME280;53694;49.784;30.150;2023-02-02T00:48:34;98645.52;;;3.42;76.28
61474;BME280;53694;49.784;30.150;2023-02-02T00:49:35;98645.88;;;3.65;75.74
61474;BME280;53694;49.784;30.150;2023-02-02T00:50:37;98644.75;;;3.91;75.19
61474;BME280;53694;49.784;30.150;2023-02-02T00:51:38;98637.11;;;4.21;74.37
61474;BME280;53694;49.784;30.150;2023-02-02T00:52:40;98640.89;;;4.44;73.04
61474;BME280;53694;49.784;30.150;2023-02-02T00:53:41;98646.15;;;4.65;72.09
61474;BME280;53694;49.784;30.150;2023-02-02T00:54:43;98645.06;;;4.82;71.31
61474;BME280;53694;49.784;30.150;2023-02-02T00:55:44;98643.61;;;5.00;70.92
61474;BME280;53694;49.784;30.150;2023-02-02T00:56:46;98646.00;;;5.18;69.70
61474;BME280;53694;49.784;30.150;2023-02-02T00:57:47;98647.54;;;5.31;69.19
61474;BME280;53694;49.784;30.150;2023-02-02T00:58:49;98649.46;;;5.46;68.65
61474;BME280;53694;49.784;30.150;2023-02-02T00:59:50;98646.05;;;5.49;67.93
61474;BME280;53694;49.784;30.150;2023-02-02T01:00:52;98644.19;;;5.38;68.12
61474;BME280;53694;49.784;30.150;2023-02-02T01:01:53;98648.72;;;5.18;68.32
61474;BME280;53694;49.784;30.150;2023-02-02T01:02:55;98649.10;;;4.88;69.08
61474;BME280;53694;49.784;30.150;2023-02-02T01:03:56;98646.19;;;4.53;69.87
61474;BME280;53694;49.784;30.150;2023-02-02T01:04:58;98636.65;;;4.19;71.04
61474;BME280;53694;49.784;30.150;2023-02-02T01:06:00;98640.66;;;3.85;72.37
61474;BME280;53694;49.784;30.150;2023-02-02T01:07:01;98638.52;;;3.54;73.56
61474;BME280;53694;49.784;30.150;2023-02-02T01:08:03;98636.69;;;3.33;74.74
61474;BME280;53694;49.784;30.150;2023-02-02T01:09:04;98648.87;;;3.27;75.51
61474;BME280;53694;49.784;30.150;2023-02-02T01:10:10;98634.76;;;3.34;75.71
61474;BME280;53694;49.784;30.150;2023-02-02T01:11:11;98635.80;;;3.54;75.50
61474;BME280;53694;49.784;30.150;2023-02-02T01:12:13;98637.83;;;3.81;75.30
61474;BME280;53694;49.784;30.150;2023-02-02T01:13:14;98637.13;;;4.09;74.10
61474;BME280;53694;49.784;30.150;2023-02-02T01:14:16;98637.06;;;4.33;73.19
61474;BME280;53694;49.784;30.150;2023-02-02T01:15:18;98634.63;;;4.56;72.40
61474;BME280;53694;49.784;30.150;2023-02-02T01:16:19;98637.59;;;4.79;71.38
61474;BME280;53694;49.784;30.150;2023-02-02T01:17:21;98639.57;;;4.94;70.16
61474;BME280;53694;49.784;30.150;2023-02-02T01:18:22;98634.59;;;5.12;69.92
61474;BME280;53694;49.784;30.150;2023-02-02T01:19:24;98628.02;;;5.29;69.40
61474;BME280;53694;49.784;30.150;2023-02-02T01:20:25;98637.88;;;5.49;68.97
61474;BME280;53694;49.784;30.150;2023-02-02T01:21:27;98635.76;;;5.59;68.18
61474;BME280;53694;49.784;30.150;2023-02-02T01:22:29;98638.06;;;5.57;68.00
61474;BME280;53694;49.784;30.150;2023-02-02T01:23:31;98639.98;;;5.40;67.86
61474;BME280;53694;49.784;30.150;2023-02-02T01:24:33;98638.10;;;5.13;68.08
61474;BME280;53694;49.784;30.150;2023-02-02T01:25:35;98644.86;;;4.75;68.81
61474;BME280;53694;49.784;30.150;2023-02-02T01:26:36;98636.84;;;4.38;69.99
61474;BME280;53694;49.784;30.150;2023-02-02T01:27:38;98636.91;;;4.01;71.19
61474;BME280;53694;49.784;30.150;2023-02-02T01:28:40;98641.68;;;3.68;72.54
61474;BME280;53694;49.784;30.150;2023-02-02T01:29:41;98637.25;;;3.39;73.75
61474;BME280;53694;49.784;30.150;2023-02-02T01:30:43;98638.93;;;3.19;74.79
61474;BME280;53694;49.784;30.150;2023-02-02T01:31:45;98635.30;;;3.15;75.62
61474;BME280;53694;49.784;30.150;2023-02-02T01:32:47;98641.42;;;3.24;75.84
61474;BME280;53694;49.784;30.150;2023-02-02T01:33:49;98638.95;;;3.43;75.63
61474;BME280;53694;49.784;30.150;2023-02-02T01:34:50;98643.26;;;3.69;75.12
61474;BME280;53694;49.784;30.150;2023-02-02T01:35:54;98643.72;;;3.95;74.06
61474;BME280;53694;49.784;30.150;2023-02-02T01:36:56;98647.63;;;4.22;73.31
61474;BME280;53694;49.784;30.150;2023-02-02T01:37:58;98642.25;;;4.50;72.54
61474;BME280;53694;49.784;30.150;2023-02-02T01:38:59;98640.56;;;4.74;71.88
61474;BME280;53694;49.784;30.150;2023-02-02T01:40:01;98648.95;;;4.97;70.67
61474;BME280;53694;49.784;30.150;2023-02-02T01:41:03;98642.66;;;5.09;69.16
61474;BME280;53694;49.784;30.150;2023-02-02T01:42:15;98647.34;;;5.24;68.80
61474;BME280;53694;49.784;30.150;2023-02-02T01:43:28;98635.92;;;5.34;68.05
61474;BME280;53694;49.784;30.150;2023-02-02T01:45:57;98643.28;;;5.18;67.57
61474;BME280;53694;49.784;30.150;2023-02-02T01:46:59;98641.09;;;4.80;68.73
61474;BME280;53694;49.784;30.150;2023-02-02T01:48:01;98640.45;;;4.42;69.54
61474;BME280;53694;49.784;30.150;2023-02-02T01:49:14;98644.81;;;4.07;70.76
61474;BME280;53694;49.784;30.150;2023-02-02T01:50:18;98643.38;;;3.72;72.12
61474;BME280;53694;49.784;30.150;2023-02-02T01:51:37;98638.73;;;3.36;73.62
61474;BME280;53694;49.784;30.150;2023-02-02T01:52:40;98645.69;;;3.13;74.77
61474;BME280;53694;49.784;30.150;2023-02-02T01:53:44;98640.13;;;3.09;75.72
61474;BME280;53694;49.784;30.150;2023-02-02T01:54:49;98646.84;;;3.24;75.92
61474;BME280;53694;49.784;30.150;2023-02-02T01:55:51;98644.17;;;3.48;75.44
61474;BME280;53694;49.784;30.150;2023-02-02T01:56:59;98630.27;;;3.74;74.90
61474;BME280;53694;49.784;30.150;2023-02-02T01:58:04;98643.92;;;4.03;73.83
61474;BME280;53694;49.784;30.150;2023-02-02T01:59:07;98634.59;;;4.28;72.58
61474;BME280;53694;49.784;30.150;2023-02-02T02:00:13;98629.55;;;4.55;72.07
61474;BME280;53694;49.784;30.150;2023-02-02T02:01:15;98633.75;;;4.80;71.02
61474;BME280;53694;49.784;30.150;2023-02-02T02:02:17;98636.59;;;4.99;69.89
61474;BME280;53694;49.784;30.150;2023-02-02T02:03:25;98643.28;;;5.18;68.99
61474;BME280;53694;49.784;30.150;2023-02-02T02:04:29;98643.20;;;5.30;68.37
61474;BME280;53694;49.784;30.150;2023-02-02T02:05:34;98642.98;;;5.35;67.50
61474;BME280;53694;49.784;30.150;2023-02-02T02:06:37;98637.24;;;5.24;67.72
61474;BME280;53694;49.784;30.150;2023-02-02T02:07:40;98638.16;;;5.00;68.01
61474;BME280;53694;49.784;30.150;2023-02-02T02:08:49;98644.11;;;4.62;68.40
61474;BME280;53694;49.784;30.150;2023-02-02T02:09:51;98641.30;;;4.18;69.86
61474;BME280;53694;49.784;30.150;2023-02-02T02:10:53;98651.64;;;3.76;71.33
61474;BME280;53694;49.784;30.150;2023-02-02T02:11:55;98646.65;;;3.41;72.77
61474;BME280;53694;49.784;30.150;2023-02-02T02:12:57;98647.48;;;3.09;74.08
61474;BME280;53694;49.784;30.150;2023-02-02T02:14:02;98637.03;;;2.86;75.42
61474;BME280;53694;49.784;30.150;2023-02-02T02:15:05;98637.91;;;2.78;76.21
61474;BME280;53694;49.784;30.150;2023-02-02T02:18:06;98647.04;;;3.07;76.40
61474;BME280;53694;49.784;30.150;2023-02-02T02:19:19;98643.93;;;3.41;75.76
61474;BME280;53694;49.784;30.150;2023-02-02T02:27:10;98636.98;;;5.30;67.75
61474;BME280;53694;49.784;30.150;2023-02-02T02:29:55;98646.22;;;5.41;67.82
61474;BME280;53694;49.784;30.150;2023-02-02T02:31:04;98646.69;;;4.71;68.47
61474;BME280;53694;49.784;30.150;2023-02-02T02:32:37;98646.69;;;4.71;68.47
61474;BME280;53694;49.784;30.150;2023-02-02T02:33:44;98642.30;;;4.26;69.52
61474;BME280;53694;49.784;30.150;2023-02-02T02:36:35;98647.06;;;3.31;72.78
61474;BME280;53694;49.784;30.150;2023-02-02T02:37:26;98641.45;;;2.91;74.54
61474;BME280;53694;49.784;30.150;2023-02-02T02:38:44;98641.96;;;2.72;75.62
61474;BME280;53694;49.784;30.150;2023-02-02T02:39:53;98637.33;;;2.72;76.31
61474;BME280;53694;49.784;30.150;2023-02-02T02:40:56;98637.28;;;2.93;76.47
61474;BME280;53694;49.784;30.150;2023-02-02T02:42:03;98644.45;;;3.22;75.87
61474;BME280;53694;49.784;30.150;2023-02-02T02:43:11;98634.55;;;3.51;75.30
61474;BME280;53694;49.784;30.150;2023-02-02T02:44:15;98637.13;;;4.09;73.03
61474;BME280;53694;49.784;30.150;2023-02-02T02:45:17;98637.13;;;4.09;73.03
61474;BME280;53694;49.784;30.150;2023-02-02T02:46:20;98641.81;;;4.36;72.41
61474;BME280;53694;49.784;30.150;2023-02-02T02:47:24;98638.67;;;4.62;71.29
61474;BME280;53694;49.784;30.150;2023-02-02T02:48:27;98637.79;;;4.86;70.06
61474;BME280;53694;49.784;30.150;2023-02-02T02:49:29;98638.95;;;5.01;69.14
61474;BME280;53694;49.784;30.150;2023-02-02T02:50:31;98643.64;;;5.16;68.46
61474;BME280;53694;49.784;30.150;2023-02-02T02:51:42;98645.84;;;5.26;67.51
61474;BME280;53694;49.784;30.150;2023-02-02T02:52:44;98644.81;;;5.31;67.07
61474;BME280;53694;49.784;30.150;2023-02-02T02:53:47;98648.72;;;5.18;67.02
61474;BME280;53694;49.784;30.150;2023-02-02T02:54:51;98644.22;;;4.94;67.64
61474;BME280;53694;49.784;30.150;2023-02-02T02:57:19;98649.31;;;4.27;69.35
61474;BME280;53694;49.784;30.150;2023-02-02T03:00:51;98651.29;;;2.95;73.95
61474;BME280;53694;49.784;30.150;2023-02-02T03:03:13;98643.27;;;2.66;76.33
61474;BME280;53694;49.784;30.150;2023-02-02T03:04:21;98653.17;;;2.83;76.54
61474;BME280;53694;49.784;30.150;2023-02-02T03:05:36;98645.43;;;3.06;76.04
61474;BME280;53694;49.784;30.150;2023-02-02T03:06:46;98651.83;;;3.34;75.13
61474;BME280;53694;49.784;30.150;2023-02-02T03:07:57;98651.31;;;3.65;74.45
61474;BME280;53694;49.784;30.150;2023-02-02T03:09:34;98653.09;;;3.98;73.55
61474;BME280;53694;49.784;30.150;2023-02-02T03:10:12;98648.64;;;4.30;72.24
61474;BME280;53694;49.784;30.150;2023-02-02T03:11:15;98648.33;;;4.60;70.93
61474;BME280;53694;49.784;30.150;2023-02-02T03:12:17;98652.08;;;4.83;70.03
61474;BME280;53694;49.784;30.150;2023-02-02T03:13:19;98656.16;;;5.05;69.52
61474;BME280;53694;49.784;30.150;2023-02-02T03:14:20;98660.50;;;5.22;68.27
61474;BME280;53694;49.784;30.150;2023-02-02T03:15:22;98654.20;;;5.34;67.19
61474;BME280;53694;49.784;30.150;2023-02-02T03:16:24;98660.88;;;5.36;66.85
61474;BME280;53694;49.784;30.150;2023-02-02T03:17:26;98660.69;;;5.29;66.94
61474;BME280;53694;49.784;30.150;2023-02-02T03:18:30;98660.92;;;5.08;66.90
61474;BME280;53694;49.784;30.150;2023-02-02T03:19:32;98668.66;;;4.78;67.63
61474;BME280;53694;49.784;30.150;2023-02-02T03:20:34;98666.50;;;4.43;68.56
61474;BME280;53694;49.784;30.150;2023-02-02T03:21:36;98666.23;;;4.08;69.58
61474;BME280;53694;49.784;30.150;2023-02-02T03:22:38;98663.17;;;3.73;70.51
61474;BME280;53694;49.784;30.150;2023-02-02T03:23:40;98660.44;;;3.36;71.76
61474;BME280;53694;49.784;30.150;2023-02-02T03:24:41;98658.55;;;3.04;73.13
61474;BME280;53694;49.784;30.150;2023-02-02T03:25:43;98659.37;;;2.83;74.35
61474;BME280;53694;49.784;30.150;2023-02-02T03:26:45;98653.70;;;2.76;75.04
61474;BME280;53694;49.784;30.150;2023-02-02T03:27:47;98665.73;;;2.87;75.33
61474;BME280;53694;49.784;30.150;2023-02-02T03:28:49;98663.76;;;3.09;75.38
61474;BME280;53694;49.784;30.150;2023-02-02T03:29:51;98657.25;;;3.34;74.62
61474;BME280;53694;49.784;30.150;2023-02-02T03:30:53;98663.63;;;3.63;73.66
61474;BME280;53694;49.784;30.150;2023-02-02T03:31:56;98658.21;;;3.87;72.60
61474;BME280;53694;49.784;30.150;2023-02-02T03:32:58;98664.30;;;4.09;71.97
61474;BME280;53694;49.784;30.150;2023-02-02T03:33:59;98652.58;;;4.33;71.00
61474;BME280;53694;49.784;30.150;2023-02-02T03:35:01;98656.27;;;4.53;70.20
61474;BME280;53694;49.784;30.150;2023-02-02T03:36:03;98651.44;;;4.74;69.97
61474;BME280;53694;49.784;30.150;2023-02-02T03:37:04;98655.20;;;4.97;68.98
61474;BME280;53694;49.784;30.150;2023-02-02T03:38:06;98659.97;;;5.16;68.12
61474;BME280;53694;49.784;30.150;2023-02-02T03:39:08;98658.33;;;5.28;67.78
61474;BME280;53694;49.784;30.150;2023-02-02T03:40:11;98650.16;;;5.28;67.41
61474;BME280;53694;49.784;30.150;2023-02-02T03:41:12;98656.36;;;5.12;66.92
61474;BME280;53694;49.784;30.150;2023-02-02T03:42:14;98664.11;;;4.82;67.10
61474;BME280;53694;49.784;30.150;2023-02-02T03:43:21;98662.39;;;4.49;68.19
61474;BME280;53694;49.784;30.150;2023-02-02T03:44:22;98659.88;;;4.16;69.12
61474;BME280;53694;49.784;30.150;2023-02-02T03:45:28;98662.27;;;3.81;70.14
61474;BME280;53694;49.784;30.150;2023-02-02T03:46:30;98660.16;;;3.17;72.42
61474;BME280;53694;49.784;30.150;2023-02-02T03:47:31;98660.16;;;3.17;72.42
61474;BME280;53694;49.784;30.150;2023-02-02T03:48:37;98663.27;;;2.94;73.32
61474;BME280;53694;49.784;30.150;2023-02-02T03:49:39;98662.67;;;2.89;74.00
61474;BME280;53694;49.784;30.150;2023-02-02T03:50:40;98666.91;;;2.98;74.31
61474;BME280;53694;49.784;30.150;2023-02-02T03:51:42;98657.58;;;3.20;74.12
61474;BME280;53694;49.784;30.150;2023-02-02T03:52:44;98666.21;;;3.47;73.64
61474;BME280;53694;49.784;30.150;2023-02-02T03:53:46;98668.60;;;3.73;72.86
61474;BME280;53694;49.784;30.150;2023-02-02T03:54:47;98666.80;;;4.01;72.01
61474;BME280;53694;49.784;30.150;2023-02-02T03:55:49;98674.25;;;4.29;71.06
61474;BME280;53694;49.784;30.150;2023-02-02T03:56:50;98660.32;;;4.59;70.47
61474;BME280;53694;49.784;30.150;2023-02-02T03:57:52;98671.58;;;4.85;69.24
61474;BME280;53694;49.784;30.150;2023-02-02T03:58:53;98678.75;;;5.06;68.04
61474;BME280;53694;49.784;30.150;2023-02-02T03:59:55;98674.83;;;5.19;66.79
61474;BME280;53694;49.784;30.150;2023-02-02T04:01:06;98667.55;;;5.23;66.51
61474;BME280;53694;49.784;30.150;2023-02-02T04:02:08;98671.22;;;5.15;66.68
61474;BME280;53694;49.784;30.150;2023-02-02T04:03:09;98665.98;;;4.94;66.95
61474;BME280;53694;49.784;30.150;2023-02-02T04:04:11;98665.29;;;4.69;67.42
61474;BME280;53694;49.784;30.150;2023-02-02T04:05:13;98669.90;;;4.40;68.16
61474;BME280;53694;49.784;30.150;2023-02-02T04:06:14;98670.53;;;4.09;68.88
61474;BME280;53694;49.784;30.150;2023-02-02T04:07:16;98671.78;;;3.75;69.76
61474;BME280;53694;49.784;30.150;2023-02-02T04:08:17;98661.36;;;3.40;70.92
61474;BME280;53694;49.784;30.150;2023-02-02T04:09:19;98667.61;;;3.08;72.16
61474;BME280;53694;49.784;30.150;2023-02-02T04:10:21;98662.75;;;2.80;73.29
61474;BME280;53694;49.784;30.150;2023-02-02T04:11:22;98664.83;;;2.62;74.47
61474;BME280;53694;49.784;30.150;2023-02-02T04:12:24;98663.38;;;2.65;75.10
61474;BME280;53694;49.784;30.150;2023-02-02T04:13:25;98658.46;;;2.79;74.98
61474;BME280;53694;49.784;30.150;2023-02-02T04:14:27;98667.82;;;3.03;74.66
61474;BME280;53694;49.784;30.150;2023-02-02T04:15:28;98666.88;;;3.32;74.23
61474;BME280;53694;49.784;30.150;2023-02-02T04:16:30;98667.92;;;3.64;73.34
61474;BME280;53694;49.784;30.150;2023-02-02T04:17:31;98666.67;;;3.98;72.50
61474;BME280;53694;49.784;30.150;2023-02-02T04:18:33;98665.73;;;4.31;71.28
61474;BME280;53694;49.784;30.150;2023-02-02T04:19:34;98668.83;;;4.57;70.25
61474;BME280;53694;49.784;30.150;2023-02-02T04:20:36;98674.09;;;4.78;68.29
61474;BME280;53694;49.784;30.150;2023-02-02T04:21:38;98675.83;;;4.98;68.21
61474;BME280;53694;49.784;30.150;2023-02-02T04:22:40;98671.39;;;5.22;67.52
61474;BME280;53694;49.784;30.150;2023-02-02T04:23:41;98669.31;;;5.31;66.34
61474;BME280;53694;49.784;30.150;2023-02-02T04:24:43;98667.55;;;5.23;65.85
61474;BME280;53694;49.784;30.150;2023-02-02T04:25:51;98682.48;;;5.01;65.95
61474;BME280;53694;49.784;30.150;2023-02-02T04:26:53;98677.39;;;4.71;66.84
61474;BME280;53694;49.784;30.150;2023-02-02T04:27:54;98678.66;;;4.34;67.65
61474;BME280;53694;49.784;30.150;2023-02-02T04:28:56;98671.67;;;3.96;68.87
61474;BME280;53694;49.784;30.150;2023-02-02T04:29:58;98674.02;;;3.61;70.04
61474;BME280;53694;49.784;30.150;2023-02-02T04:31:00;98684.05;;;3.23;71.29
61474;BME280;53694;49.784;30.150;2023-02-02T04:32:01;98673.98;;;2.91;72.59
61474;BME280;53694;49.784;30.150;2023-02-02T04:33:03;98674.23;;;2.65;73.81
61474;BME280;53694;49.784;30.150;2023-02-02T04:34:05;98674.09;;;2.61;74.63
61474;BME280;53694;49.784;30.150;2023-02-02T04:35:07;98670.65;;;2.73;74.93
61474;BME280;53694;49.784;30.150;2023-02-02T04:36:09;98670.28;;;2.95;74.81
61474;BME280;53694;49.784;30.150;2023-02-02T04:37:11;98680.20;;;3.24;74.10
61474;BME280;53694;49.784;30.150;2023-02-02T04:38:13;98681.83;;;3.50;73.04
61474;BME280;53694;49.784;30.150;2023-02-02T04:39:15;98666.80;;;3.77;72.42
61474;BME280;53694;49.784;30.150;2023-02-02T04:40:17;98677.78;;;4.05;71.31
61474;BME280;53694;49.784;30.150;2023-02-02T04:41:19;98687.37;;;4.27;70.31
61474;BME280;53694;49.784;30.150;2023-02-02T04:42:21;98680.99;;;4.47;69.58
61474;BME280;53694;49.784;30.150;2023-02-02T04:43:23;98678.10;;;4.68;68.90
61474;BME280;53694;49.784;30.150;2023-02-02T04:44:24;98671.58;;;4.85;67.94
61474;BME280;53694;49.784;30.150;2023-02-02T04:45:26;98682.64;;;4.92;66.99
61474;BME280;53694;49.784;30.150;2023-02-02T04:46:28;98682.46;;;4.85;67.01
61474;BME280;53694;49.784;30.150;2023-02-02T04:47:29;98683.44;;;4.65;67.16
61474;BME280;53694;49.784;30.150;2023-02-02T04:48:31;98683.63;;;4.32;67.51
61474;BME280;53694;49.784;30.150;2023-02-02T04:49:32;98682.86;;;3.94;68.58
61474;BME280;53694;49.784;30.150;2023-02-02T04:50:34;98683.66;;;3.58;69.85
61474;BME280;53694;49.784;30.150;2023-02-02T04:51:41;98683.26;;;3.23;70.88
61474;BME280;53694;49.784;30.150;2023-02-02T04:52:40;98688.34;;;2.91;72.12
61474;BME280;53694;49.784;30.150;2023-02-02T04:53:41;98686.86;;;2.61;73.35
61474;BME280;53694;49.784;30.150;2023-02-02T04:54:43;98687.20;;;2.38;74.42
61474;BME280;53694;49.784;30.150;2023-02-02T04:55:44;98682.87;;;2.37;75.16
61474;BME280;53694;49.784;30.150;2023-02-02T04:56:46;98684.87;;;2.49;75.34
61474;BME280;53694;49.784;30.150;2023-02-02T04:57:47;98682.63;;;2.72;75.18
61474;BME280;53694;49.784;30.150;2023-02-02T04:58:52;98683.31;;;3.02;74.67
61474;BME280;53694;49.784;30.150;2023-02-02T04:59:53;98685.06;;;3.31;73.31
61474;BME280;53694;49.784;30.150;2023-02-02T05:00:55;98689.87;;;3.59;72.36
61474;BME280;53694;49.784;30.150;2023-02-02T05:02:00;98683.67;;;3.83;71.28
61474;BME280;53694;49.784;30.150;2023-02-02T05:03:02;98692.15;;;4.06;70.50
61474;BME280;53694;49.784;30.150;2023-02-02T05:04:04;98693.70;;;4.31;69.84
61474;BME280;53694;49.784;30.150;2023-02-02T05:05:08;98695.48;;;4.51;69.17
61474;BME280;53694;49.784;30.150;2023-02-02T05:06:11;98695.31;;;4.72;68.23
61474;BME280;53694;49.784;30.150;2023-02-02T05:07:12;98697.53;;;4.83;67.03
61474;BME280;53694;49.784;30.150;2023-02-02T05:08:14;98691.45;;;4.73;66.83
61474;BME280;53694;49.784;30.150;2023-02-02T05:09:15;98695.92;;;4.54;67.04
61474;BME280;53694;49.784;30.150;2023-02-02T05:10:17;98699.62;;;4.21;67.62
61474;BME280;53694;49.784;30.150;2023-02-02T05:11:21;98699.63;;;3.84;68.54
61474;BME280;53694;49.784;30.150;2023-02-02T05:12:23;98694.84;;;3.44;69.80
61474;BME280;53694;49.784;30.150;2023-02-02T05:13:25;98690.44;;;3.07;71.31
61474;BME280;53694;49.784;30.150;2023-02-02T05:14:27;98696.77;;;2.78;72.57
61474;BME280;53694;49.784;30.150;2023-02-02T05:15:28;98701.92;;;2.49;73.63
61474;BME280;53694;49.784;30.150;2023-02-02T05:16:30;98709.23;;;2.28;74.72
61474;BME280;53694;49.784;30.150;2023-02-02T05:17:32;98706.53;;;2.28;75.49
61474;BME280;53694;49.784;30.150;2023-02-02T05:18:33;98708.19;;;2.41;75.69
61474;BME280;53694;49.784;30.150;2023-02-02T05:19:35;98716.02;;;2.64;75.33
61474;BME280;53694;49.784;30.150;2023-02-02T05:20:36;98705.75;;;2.90;74.71
61474;BME280;53694;49.784;30.150;2023-02-02T05:21:38;98702.56;;;3.21;74.04
61474;BME280;53694;49.784;30.150;2023-02-02T05:22:39;98701.97;;;3.49;72.83
61474;BME280;53694;49.784;30.150;2023-02-02T05:23:41;98698.94;;;3.75;71.94
61474;BME280;53694;49.784;30.150;2023-02-02T05:24:43;98707.55;;;4.01;70.93
61474;BME280;53694;49.784;30.150;2023-02-02T05:25:52;98706.75;;;4.25;70.08
61474;BME280;53694;49.784;30.150;2023-02-02T05:26:54;98706.25;;;4.48;69.25
61474;BME280;53694;49.784;30.150;2023-02-02T05:27:56;98708.02;;;4.68;68.10
61474;BME280;53694;49.784;30.150;2023-02-02T05:28:57;98711.49;;;4.81;66.63
61474;BME280;53694;49.784;30.150;2023-02-02T05:29:59;98711.49;;;4.81;66.41
61474;BME280;53694;49.784;30.150;2023-02-02T05:31:05;98708.81;;;4.69;66.54
61474;BME280;53694;49.784;30.150;2023-02-02T05:32:07;98709.33;;;4.46;66.85
61474;BME280;53694;49.784;30.150;2023-02-02T05:33:08;98709.59;;;4.17;67.85
61474;BME280;53694;49.784;30.150;2023-02-02T05:34:10;98712.97;;;3.89;68.92
61474;BME280;53694;49.784;30.150;2023-02-02T05:35:11;98709.31;;;3.61;69.50
61474;BME280;53694;49.784;30.150;2023-02-02T05:36:13;98704.41;;;3.30;70.31
61474;BME280;53694;49.784;30.150;2023-02-02T05:37:15;98715.73;;;2.98;71.28
61474;BME280;53694;49.784;30.150;2023-02-02T05:38:16;98719.97;;;2.66;72.38
61474;BME280;53694;49.784;30.150;2023-02-02T05:39:18;98716.80;;;2.43;73.52
61474;BME280;53694;49.784;30.150;2023-02-02T05:40:20;98719.03;;;2.41;74.34
61474;BME280;53694;49.784;30.150;2023-02-02T05:41:21;98724.22;;;2.55;74.47
61474;BME280;53694;49.784;30.150;2023-02-02T05:42:23;98714.95;;;2.77;74.14
61474;BME280;53694;49.784;30.150;2023-02-02T05:43:25;98720.36;;;2.98;73.28
61474;BME280;53694;49.784;30.150;2023-02-02T05:44:27;98717.40;;;3.24;72.76
61474;BME280;53694;49.784;30.150;2023-02-02T05:45:29;98724.12;;;3.51;71.88
61474;BME280;53694;49.784;30.150;2023-02-02T05:46:30;98719.18;;;3.78;71.03
61474;BME280;53694;49.784;30.150;2023-02-02T05:47:32;98721.59;;;4.04;70.39
61474;BME280;53694;49.784;30.150;2023-02-02T05:48:34;98720.45;;;4.29;69.06
61474;BME280;53694;49.784;30.150;2023-02-02T05:49:35;98725.39;;;4.51;68.03
61474;BME280;53694;49.784;30.150;2023-02-02T05:50:37;98730.92;;;4.67;67.26
61474;BME280;53694;49.784;30.150;2023-02-02T05:51:44;98718.76;;;4.77;66.73
61474;BME280;53694;49.784;30.150;2023-02-02T05:52:47;98715.03;;;4.69;66.30